Time;durP1;ratioP1;P1;durP2;ratioP2;P2;SDS_P1;SDS_P2;PMS_P1;PMS_P2;Temp;Humidity;BMP_temperature;BMP_pressure;BME280_temperature;BME280_humidity;BME280_pressure;Samples;Min_cycle;Max_cycle;Signal;HPM_P1;HPM_P2
2022/06/23 00:01:05;;;;;;;8.77;5.57;;;13.70;99.90;;;;;;5017206;28;20046;-78
2022/06/23 00:03:38;;;;;;;7.40;5.95;;;13.60;99.90;;;;;;5020527;28;20039;-79
2022/06/23 00:06:06;;;;;;;;;;;13.60;99.90;;;;;;5033583;28;20041;-78
2022/06/23 00:08:42;;;;;;;7.43;6.03;;;13.60;99.90;;;;;;5026343;28;19924;-78
2022/06/23 00:11:21;;;;;;;8.00;6.72;;;13.50;99.90;;;;;;5037221;28;20073;-78
2022/06/23 00:13:50;;;;;;;8.77;6.80;;;13.50;99.90;;;;;;5032396;28;20057;-78
2022/06/23 00:16:27;;;;;;;8.95;6.50;;;13.50;99.90;;;;;;5027763;28;20059;-79
2022/06/23 00:18:54;;;;;;;7.43;6.10;;;13.40;99.90;;;;;;5015618;28;20103;-79
2022/06/23 00:21:27;;;;;;;7.90;6.40;;;13.50;99.90;;;;;;5008839;28;20138;-79
2022/06/23 00:23:59;;;;;;;8.13;5.95;;;13.40;99.90;;;;;;5033984;28;20522;-79
2022/06/23 00:26:28;;;;;;;11.40;6.57;;;13.40;99.90;;;;;;5018273;28;20034;-78
2022/06/23 00:29:01;;;;;;;9.07;6.78;;;13.30;99.90;;;;;;5024493;28;20048;-79
2022/06/23 00:31:34;;;;;;;8.93;6.55;;;13.30;99.90;;;;;;5025548;28;20050;-80
2022/06/23 00:34:03;;;;;;;9.50;6.75;;;13.20;99.90;;;;;;5019053;28;20038;-78
2022/06/23 00:36:55;;;;;;;9.75;5.90;;;13.20;99.90;;;;;;5025564;28;20045;-79
2022/06/23 00:39:46;;;;;;;7.85;7.00;;;13.20;99.90;;;;;;5018576;28;20038;-79
2022/06/23 00:42:40;;;;;;;10.52;6.80;;;13.10;99.90;;;;;;5009964;28;20045;-79
2022/06/23 00:45:19;;;;;;;10.80;6.70;;;13.10;99.90;;;;;;5022060;28;20034;-78
2022/06/23 00:48:03;;;;;;;9.75;6.90;;;13.00;99.90;;;;;;5025251;28;20041;-79
2022/06/23 00:50:53;;;;;;;7.97;6.20;;;13.00;99.90;;;;;;5010594;28;20100;-79
2022/06/23 00:53:49;;;;;;;9.68;6.78;;;13.00;99.90;;;;;;5018350;28;20042;-79
2022/06/23 00:56:36;;;;;;;8.63;6.38;;;13.00;99.90;;;;;;5020349;28;20049;-79
2022/06/23 00:59:09;;;;;;;8.10;6.53;;;12.90;99.90;;;;;;5035065;28;20511;-79
2022/06/23 01:01:35;;;;;;;8.82;6.55;;;12.90;99.90;;;;;;5021096;28;20052;-79
2022/06/23 01:04:07;;;;;;;11.95;6.55;;;12.90;99.90;;;;;;5010079;28;20038;-79
2022/06/23 01:06:41;;;;;;;;;;;12.90;99.90;;;;;;5030156;28;20044;-79
2022/06/23 01:09:39;;;;;;;10.90;7.60;;;12.90;99.90;;;;;;5025067;28;19926;-79
2022/06/23 01:12:17;;;;;;;10.43;6.60;;;12.80;99.90;;;;;;4988997;28;20057;-79
2022/06/23 01:14:50;;;;;;;9.38;6.68;;;12.80;99.90;;;;;;5008929;28;20039;-79
2022/06/23 01:17:20;;;;;;;10.40;6.00;;;12.20;99.90;;;;;;5017482;28;20042;-79
2022/06/23 01:20:19;;;;;;;10.45;7.35;;;12.80;99.90;;;;;;5013984;28;20052;-79
2022/06/23 01:22:56;;;;;;;11.07;6.68;;;12.70;99.90;;;;;;5024250;28;20587;-79
2022/06/23 01:25:40;;;;;;;10.05;6.78;;;12.70;99.90;;;;;;5027422;28;20041;-79
2022/06/23 01:28:13;;;;;;;7.82;6.65;;;12.70;99.90;;;;;;5032306;28;20033;-79
2022/06/23 01:31:05;;;;;;;10.18;6.70;;;12.70;99.90;;;;;;5017237;28;20088;-79
2022/06/23 01:33:36;;;;;;;9.83;7.37;;;12.60;99.90;;;;;;5028797;28;20124;-79
2022/06/23 01:36:25;;;;;;;10.77;6.70;;;12.60;99.90;;;;;;5027472;28;20296;-79
2022/06/23 01:39:14;;;;;;;12.82;7.40;;;12.60;99.90;;;;;;5018873;28;20049;-79
2022/06/23 01:42:12;;;;;;;10.95;6.95;;;12.50;99.90;;;;;;5023095;28;20077;-79
2022/06/23 01:44:59;;;;;;;9.63;7.10;;;12.50;99.90;;;;;;5036058;28;20137;-79
2022/06/23 01:47:35;;;;;;;12.45;7.32;;;12.40;99.90;;;;;;5009483;28;20037;-79
2022/06/23 01:50:13;;;;;;;11.30;7.07;;;12.40;99.90;;;;;;5022220;28;20151;-79
2022/06/23 01:52:42;;;;;;;8.80;6.80;;;12.40;99.90;;;;;;5012406;28;20049;-79
2022/06/23 01:55:33;;;;;;;10.85;6.90;;;12.30;99.90;;;;;;5034490;28;20492;-79
2022/06/23 01:58:06;;;;;;;8.73;6.82;;;12.30;99.90;;;;;;5022435;28;20060;-79
2022/06/23 02:00:38;;;;;;;9.75;7.40;;;12.30;99.90;;;;;;5017794;28;20042;-79
2022/06/23 02:03:18;;;;;;;10.25;7.35;;;12.30;99.90;;;;;;5033609;28;20042;-79
2022/06/23 02:05:52;;;;;;;8.82;6.55;;;12.30;99.90;;;;;;5041798;28;20046;-79
2022/06/23 02:08:57;;;;;;;11.38;6.88;;;12.30;99.90;;;;;;5028718;28;20064;-80
2022/06/23 02:11:23;;;;;;;13.55;7.40;;;12.30;99.90;;;;;;5016414;28;20111;-79
2022/06/23 02:13:55;;;;;;;9.23;6.65;;;12.20;99.90;;;;;;5039609;28;20037;-79
2022/06/23 02:16:43;;;;;;;11.40;7.35;;;12.20;99.90;;;;;;5024204;28;20046;-79
2022/06/23 02:19:37;;;;;;;11.57;7.50;;;12.20;99.90;;;;;;5026927;28;20029;-80
2022/06/23 02:22:13;;;;;;;8.90;7.05;;;12.20;99.90;;;;;;5038112;28;20055;-79
2022/06/23 02:25:16;;;;;;;9.55;7.25;;;12.20;99.90;;;;;;5028357;28;20037;-79
2022/06/23 02:27:45;;;;;;;11.23;7.53;;;12.20;99.90;;;;;;5017806;28;20045;-79
2022/06/23 02:30:19;;;;;;;10.88;7.45;;;12.10;99.90;;;;;;5041629;28;20065;-79
2022/06/23 02:33:07;;;;;;;10.02;7.68;;;12.10;99.90;;;;;;5026364;28;20045;-79
2022/06/23 02:35:43;;;;;;;9.93;7.07;;;12.10;99.90;;;;;;5046345;28;20050;-79
2022/06/23 02:38:26;;;;;;;12.00;8.23;;;12.10;99.90;;;;;;5046247;28;20077;-79
2022/06/23 02:40:54;;;;;;;;;;;12.00;99.90;;;;;;5046100;28;20030;-78
2022/06/23 02:43:26;;;;;;;11.40;8.07;;;12.00;99.90;;;;;;5033684;28;19952;-79
2022/06/23 02:46:15;;;;;;;10.07;8.02;;;12.00;99.90;;;;;;5041071;28;20041;-79
2022/06/23 02:49:00;;;;;;;10.73;7.55;;;12.00;99.90;;;;;;5050253;28;20498;-79
2022/06/23 02:51:38;;;;;;;11.30;8.25;;;11.90;99.90;;;;;;5025773;28;20030;-79
2022/06/23 02:54:36;;;;;;;10.15;7.43;;;11.90;99.90;;;;;;5015382;28;20080;-79
2022/06/23 02:57:46;;;;;;;10.73;7.85;;;11.90;99.90;;;;;;5003576;28;20053;-79
2022/06/23 03:00:27;;;;;;;12.32;7.80;;;11.80;99.90;;;;;;4993128;28;20522;-80
2022/06/23 03:03:01;;;;;;;11.32;8.43;;;11.80;99.90;;;;;;5036111;28;20196;-80
2022/06/23 03:05:37;;;;;;;11.98;8.82;;;11.80;99.90;;;;;;5040633;28;20111;-80
2022/06/23 03:08:20;;;;;;;11.98;8.50;;;11.80;99.90;;;;;;5039498;28;20622;-80
2022/06/23 03:11:08;;;;;;;;;;;11.70;99.90;;;;;;5030817;28;20049;-81
2022/06/23 03:13:45;;;;;;;14.52;8.50;;;11.70;99.90;;;;;;5038938;28;19921;-80
2022/06/23 03:16:17;;;;;;;11.85;9.18;;;11.60;99.90;;;;;;5002697;28;20130;-80
2022/06/23 03:18:52;;;;;;;13.10;8.30;;;11.70;99.90;;;;;;5016420;28;20132;-80
2022/06/23 03:21:23;;;;;;;11.90;8.52;;;11.70;99.90;;;;;;5033397;28;20030;-81
2022/06/23 03:24:02;;;;;;;11.98;8.18;;;11.60;99.90;;;;;;5012466;28;20096;-80
2022/06/23 03:26:41;;;;;;;11.55;8.43;;;11.60;99.90;;;;;;5031339;28;20980;-81
2022/06/23 03:29:31;;;;;;;11.73;7.78;;;11.60;99.90;;;;;;5020557;28;20102;-82
2022/06/23 03:32:12;;;;;;;14.57;9.45;;;11.60;99.90;;;;;;5031634;28;20067;-81
2022/06/23 03:35:00;;;;;;;12.75;8.45;;;11.60;99.90;;;;;;5035974;28;20054;-80
2022/06/23 03:37:48;;;;;;;12.05;7.95;;;11.60;99.90;;;;;;5035371;28;20513;-80
2022/06/23 03:43:19;;;;;;;12.02;8.25;;;11.60;99.90;;;;;;5034249;28;20037;-81
2022/06/23 03:46:00;;;;;;;14.65;9.68;;;11.60;99.90;;;;;;5034849;28;20029;-81
2022/06/23 03:48:41;;;;;;;12.85;8.43;;;11.50;99.90;;;;;;5002750;28;20041;-81
2022/06/23 03:51:23;;;;;;;12.00;8.20;;;11.50;99.90;;;;;;5014879;28;20053;-81
2022/06/23 03:54:22;;;;;;;11.98;8.57;;;11.50;99.90;;;;;;5020132;28;20049;-81
2022/06/23 03:56:59;;;;;;;12.88;8.93;;;11.60;99.90;;;;;;5011844;28;20045;-81
2022/06/23 03:59:42;;;;;;;14.57;8.98;;;11.60;99.90;;;;;;5027152;28;20102;-81
2022/06/23 04:02:33;;;;;;;15.02;9.70;;;11.60;99.90;;;;;;5031249;28;20041;-82
2022/06/23 04:05:19;;;;;;;14.13;10.30;;;11.60;99.90;;;;;;5030996;28;20064;-82
2022/06/23 04:07:55;;;;;;;14.18;9.07;;;11.60;99.90;;;;;;5029685;28;20132;-81
2022/06/23 04:10:30;;;;;;;11.75;8.30;;;11.60;99.90;;;;;;5030742;28;20487;-82
2022/06/23 04:13:01;;;;;;;11.63;8.73;;;11.60;99.90;;;;;;5039528;28;20042;-81
2022/06/23 04:15:32;;;;;;;14.93;9.52;;;12.00;99.90;;;;;;5010951;28;20085;-81
2022/06/23 04:18:03;;;;;;;11.50;8.60;;;11.70;99.90;;;;;;5024720;28;20274;-81
2022/06/23 04:20:36;;;;;;;12.43;8.82;;;11.70;99.90;;;;;;5006992;28;20057;-81
2022/06/23 04:23:16;;;;;;;13.93;9.50;;;11.80;99.90;;;;;;5026733;28;20038;-82
2022/06/23 04:26:01;;;;;;;13.15;9.20;;;11.80;99.90;;;;;;5013998;28;20440;-81
2022/06/23 04:28:33;;;;;;;15.23;9.20;;;11.90;99.90;;;;;;5013304;28;20041;-82
2022/06/23 04:31:02;;;;;;;19.60;10.15;;;11.90;99.90;;;;;;5033916;28;20072;-81
2022/06/23 04:33:28;;;;;;;14.35;9.73;;;11.90;99.90;;;;;;5019996;28;20514;-81
2022/06/23 04:36:00;;;;;;;12.13;8.65;;;11.90;99.90;;;;;;5031412;28;20053;-82
2022/06/23 04:38:45;;;;;;;11.82;9.02;;;12.00;99.90;;;;;;5019854;28;20034;-82
2022/06/23 04:41:14;;;;;;;13.40;9.45;;;12.00;99.90;;;;;;5017022;28;20037;-81
2022/06/23 04:43:57;;;;;;;13.48;10.02;;;12.00;99.90;;;;;;5028389;28;20040;-82
2022/06/23 04:46:46;;;;;;;18.98;11.35;;;12.10;99.90;;;;;;5018613;28;20049;-82
2022/06/23 04:49:24;;;;;;;16.23;10.35;;;12.10;99.90;;;;;;5012940;28;20033;-82
2022/06/23 04:52:16;;;;;;;14.35;10.40;;;12.20;99.90;;;;;;5019661;28;20049;-82
2022/06/23 04:54:54;;;;;;;15.65;10.55;;;12.20;99.90;;;;;;5024246;28;20060;-81
2022/06/23 04:57:55;;;;;;;16.42;11.15;;;12.30;99.90;;;;;;5016700;28;20042;-82
2022/06/23 05:00:29;;;;;;;15.13;10.75;;;12.30;99.90;;;;;;5002036;28;20038;-82
2022/06/23 05:03:12;;;;;;;13.25;10.32;;;12.40;99.90;;;;;;5028917;28;20516;-81
2022/06/23 05:05:38;;;;;;;15.52;10.93;;;12.40;99.90;;;;;;5021338;28;20037;-82
2022/06/23 05:08:08;;;;;;;17.00;11.48;;;12.50;99.90;;;;;;5030230;28;20045;-81
2022/06/23 05:10:42;;;;;;;14.45;10.82;;;12.50;99.90;;;;;;5015963;28;20368;-82
2022/06/23 05:13:16;;;;;;;17.42;12.27;;;12.60;99.90;;;;;;5022262;28;20206;-82
2022/06/23 05:16:06;;;;;;;17.02;11.65;;;12.70;99.90;;;;;;5038261;28;20442;-81
2022/06/23 05:18:44;;;;;;;16.02;11.05;;;12.80;99.90;;;;;;5034434;28;20041;-81
2022/06/23 05:21:25;;;;;;;17.00;11.40;;;12.80;99.90;;;;;;5014712;28;20029;-81
2022/06/23 05:23:51;;;;;;;17.50;12.60;;;12.90;99.90;;;;;;4999980;28;20095;-81
2022/06/23 05:26:26;;;;;;;15.45;11.73;;;13.00;99.90;;;;;;5019242;28;20416;-81
2022/06/23 05:29:00;;;;;;;16.33;12.57;;;13.10;99.90;;;;;;5019710;28;20288;-82
2022/06/23 05:31:32;;;;;;;20.45;11.93;;;13.20;99.90;;;;;;5039540;28;20495;-81
2022/06/23 05:34:04;;;;;;;15.80;11.80;;;13.30;99.90;;;;;;5012352;28;20081;-81
2022/06/23 05:36:41;;;;;;;20.23;13.52;;;13.40;99.90;;;;;;5019617;28;20042;-80
2022/06/23 05:39:39;;;;;;;21.45;13.50;;;13.50;99.90;;;;;;5031895;28;20045;-81
2022/06/23 05:42:21;;;;;;;18.33;12.90;;;13.60;99.90;;;;;;5033673;28;20048;-80
2022/06/23 05:44:51;;;;;;;17.67;12.70;;;13.70;99.90;;;;;;5035530;28;20077;-81
2022/06/23 05:47:19;;;;;;;18.50;12.45;;;13.90;99.90;;;;;;5018673;28;20118;-81
2022/06/23 05:49:56;;;;;;;16.42;12.05;;;14.00;99.90;;;;;;5035160;28;20046;-81
2022/06/23 05:52:42;;;;;;;21.45;13.50;;;14.10;99.90;;;;;;5020799;28;20156;-81
2022/06/23 05:55:35;;;;;;;16.05;12.60;;;14.20;99.90;;;;;;5022286;28;20048;-80
2022/06/23 05:58:17;;;;;;;15.27;12.00;;;14.30;99.90;;;;;;5019457;28;20454;-80
2022/06/23 06:01:25;;;;;;;16.45;13.07;;;14.40;99.90;;;;;;5020722;28;20399;-80
2022/06/23 06:04:14;;;;;;;16.17;12.43;;;14.60;99.90;;;;;;5041215;28;20045;-80
2022/06/23 06:06:40;;;;;;;17.08;12.95;;;14.70;99.90;;;;;;5029687;28;20144;-80
2022/06/23 06:11:58;;;;;;;19.65;14.02;;;14.90;99.90;;;;;;5019428;28;20045;-80
2022/06/23 06:14:28;;;;;;;16.42;12.88;;;15.10;99.90;;;;;;5033510;28;20034;-80
2022/06/23 06:16:57;;;;;;;14.90;12.88;;;15.20;99.90;;;;;;5020656;28;20033;-80
2022/06/23 06:19:25;;;;;;;16.98;13.05;;;15.30;99.90;;;;;;5024952;28;20041;-80
2022/06/23 06:21:57;;;;;;;15.63;11.40;;;15.50;99.90;;;;;;5007916;28;20038;-80
2022/06/23 06:24:35;;;;;;;17.80;11.35;;;15.60;99.90;;;;;;5025955;28;20073;-80
2022/06/23 06:27:07;;;;;;;14.57;11.50;;;15.70;99.90;;;;;;5029737;28;20084;-80
2022/06/23 06:29:36;;;;;;;16.02;11.63;;;15.90;99.90;;;;;;5025555;28;20046;-79
2022/06/23 06:32:34;;;;;;;15.43;12.20;;;16.00;99.90;;;;;;5006769;28;20037;-80
2022/06/23 06:35:24;;;;;;;15.93;11.25;;;16.20;99.90;;;;;;5036974;28;20123;-80
2022/06/23 06:37:58;;;;;;;13.70;10.68;;;16.30;99.90;;;;;;5036375;28;20050;-79
2022/06/23 06:40:25;;;;;;;16.67;9.82;;;16.50;99.90;;;;;;5019727;28;20545;-80
2022/06/23 06:42:57;;;;;;;12.65;10.70;;;16.70;99.90;;;;;;5028773;28;20125;-80
2022/06/23 06:45:29;;;;;;;12.65;10.05;;;16.80;99.90;;;;;;5026697;28;20434;-79
2022/06/23 06:48:37;;;;;;;12.65;9.35;;;17.00;99.90;;;;;;5021425;28;20095;-78
2022/06/23 06:51:23;;;;;;;13.40;8.80;;;17.20;99.90;;;;;;5025843;28;20060;-79
2022/06/23 06:53:58;;;;;;;11.70;9.43;;;17.40;99.90;;;;;;5038891;28;20120;-80
2022/06/23 06:56:40;;;;;;;12.65;8.38;;;17.60;99.90;;;;;;5029538;28;20042;-79
2022/06/23 06:59:17;;;;;;;12.57;8.43;;;17.80;99.90;;;;;;5015825;28;20495;-79
2022/06/23 07:01:49;;;;;;;12.70;9.10;;;18.00;99.90;;;;;;5048257;28;20132;-79
2022/06/23 07:04:32;;;;;;;10.55;8.48;;;18.20;99.90;;;;;;5045124;28;20505;-80
2022/06/23 07:07:05;;;;;;;11.68;7.75;;;18.40;99.90;;;;;;5020066;28;20334;-80
2022/06/23 07:09:37;;;;;;;10.95;8.98;;;18.60;99.90;;;;;;5029011;28;20127;-79
2022/06/23 07:12:13;;;;;;;12.68;8.25;;;18.80;99.90;;;;;;5026832;28;20068;-79
2022/06/23 07:15:14;;;;;;;12.73;7.85;;;19.00;99.90;;;;;;5005481;28;20099;-79
2022/06/23 07:17:47;;;;;;;10.60;7.30;;;19.30;99.90;;;;;;4973884;28;20046;-79
2022/06/23 07:20:22;;;;;;;8.73;7.32;;;19.50;99.90;;;;;;4994414;28;20503;-79
2022/06/23 07:23:08;;;;;;;10.52;7.00;;;19.70;99.90;;;;;;5012386;28;20045;-78
2022/06/23 07:25:43;;;;;;;11.48;7.65;;;19.90;99.90;;;;;;5013615;28;20049;-79
2022/06/23 07:28:42;;;;;;;8.73;6.38;;;20.00;99.90;;;;;;5032321;28;20045;-78
2022/06/23 07:31:17;;;;;;;10.02;7.22;;;20.20;99.90;;;;;;5004769;28;20103;-79
2022/06/23 07:33:54;;;;;;;10.13;7.18;;;20.30;99.90;;;;;;5052166;28;20406;-79
2022/06/23 07:36:32;;;;;;;8.48;5.65;;;20.50;99.90;;;;;;5031166;28;20045;-78
2022/06/23 07:39:06;;;;;;;11.85;6.53;;;20.70;99.90;;;;;;5030142;28;20049;-78
2022/06/23 07:41:56;;;;;;;14.23;6.05;;;20.80;99.90;;;;;;5054299;28;20042;-79
2022/06/23 07:44:49;;;;;;;11.25;6.30;;;21.00;99.90;;;;;;5013353;28;20034;-78
2022/06/23 07:47:17;;;;;;;11.00;5.38;;;21.20;99.90;;;;;;5028139;28;20080;-78
2022/06/23 07:49:42;;;;;;;6.72;5.07;;;21.40;99.90;;;;;;5034125;28;20083;-78
2022/06/23 07:52:14;;;;;;;14.90;6.07;;;21.60;99.90;;;;;;5034581;28;20037;-78
2022/06/23 07:54:40;;;;;;;11.33;5.77;;;21.70;99.90;;;;;;5018661;28;20121;-79
2022/06/23 07:57:05;;;;;;;10.10;6.07;;;21.90;99.90;;;;;;5014206;28;20136;-79
2022/06/23 07:59:42;;;;;;;8.77;5.28;;;22.00;99.90;;;;;;5015111;28;20044;-79
2022/06/23 08:02:36;;;;;;;6.95;5.20;;;22.10;99.90;;;;;;5014794;28;20068;-79
2022/06/23 08:05:14;;;;;;;7.75;5.30;;;22.30;99.90;;;;;;5031545;28;20044;-79
2022/06/23 08:07:41;;;;;;;6.40;4.35;;;22.50;99.90;;;;;;5035928;28;20368;-79
2022/06/23 08:10:17;;;;;;;9.07;5.03;;;22.60;99.90;;;;;;5022788;28;20503;-79
2022/06/23 08:12:57;;;;;;;6.63;4.50;;;22.70;99.90;;;;;;5018783;28;20041;-79
2022/06/23 08:18:38;;;;;;;8.75;4.68;;;23.20;99.90;;;;;;5022419;28;20041;-79
2022/06/23 08:21:07;;;;;;;5.50;4.85;;;23.40;99.90;;;;;;5027689;28;20056;-79
2022/06/23 08:23:38;;;;;;;10.00;5.30;;;23.50;99.90;;;;;;5019835;28;20523;-78
2022/06/23 08:26:07;;;;;;;8.50;4.53;;;23.60;99.40;;;;;;5034656;28;20025;-79
2022/06/23 08:28:34;;;;;;;6.75;4.18;;;23.70;99.50;;;;;;5022544;28;20072;-79
2022/06/23 08:31:02;;;;;;;9.02;4.72;;;23.90;98.80;;;;;;5012669;28;20555;-79
2022/06/23 08:33:28;;;;;;;7.75;4.07;;;24.00;98.70;;;;;;5005850;28;20160;-79
2022/06/23 08:35:56;;;;;;;6.03;3.80;;;24.10;98.10;;;;;;5013689;28;20408;-78
2022/06/23 08:38:31;;;;;;;11.25;4.45;;;24.20;97.10;;;;;;5025815;28;20037;-79
2022/06/23 08:41:25;;;;;;;10.13;4.03;;;24.30;96.00;;;;;;5000508;28;20069;-79
2022/06/23 08:44:22;;;;;;;5.68;4.20;;;24.40;95.40;;;;;;5030653;28;20072;-79
2022/06/23 08:47:16;;;;;;;6.88;3.85;;;24.60;96.50;;;;;;5028714;28;20506;-79
2022/06/23 08:50:05;;;;;;;8.40;3.92;;;24.80;93.50;;;;;;5026520;28;20081;-79
2022/06/23 08:52:43;;;;;;;9.63;3.85;;;24.90;94.50;;;;;;5045434;28;20494;-79
2022/06/23 08:55:47;;;;;;;7.18;3.90;;;25.10;94.50;;;;;;5016306;28;20045;-78
2022/06/23 08:58:49;;;;;;;5.38;3.78;;;25.20;93.00;;;;;;5038003;28;20037;-79
2022/06/23 09:01:43;;;;;;;4.88;4.00;;;25.40;93.70;;;;;;5030467;28;20026;-79
2022/06/23 09:04:17;;;;;;;6.95;3.80;;;25.50;92.60;;;;;;5024495;28;20041;-79
2022/06/23 09:06:55;;;;;;;5.07;3.20;;;25.70;93.30;;;;;;5021842;28;20073;-78
2022/06/23 09:09:34;;;;;;;9.25;3.63;;;25.80;92.90;;;;;;5010499;28;20111;-79
2022/06/23 09:12:00;;;;;;;5.88;3.22;;;25.90;92.20;;;;;;5025775;28;20067;-79
2022/06/23 09:14:31;;;;;;;8.95;3.72;;;26.10;92.40;;;;;;5038922;28;20495;-78
2022/06/23 09:17:36;;;;;;;4.97;3.28;;;26.20;90.80;;;;;;5023259;28;20120;-78
2022/06/23 09:20:20;;;;;;;13.32;3.53;;;26.30;90.40;;;;;;5011425;28;20103;-78
2022/06/23 09:23:04;;;;;;;9.75;3.80;;;26.30;89.30;;;;;;5011708;28;20478;-79
2022/06/23 09:25:29;;;;;;;5.38;2.85;;;26.40;85.00;;;;;;5010676;28;20050;-78
2022/06/23 09:28:15;;;;;;;7.10;3.60;;;26.50;87.40;;;;;;5018404;28;20563;-78
2022/06/23 09:30:47;;;;;;;6.57;3.40;;;26.60;86.30;;;;;;5029999;28;20529;-77
2022/06/23 09:33:32;;;;;;;4.45;2.85;;;26.80;84.80;;;;;;5010521;28;20372;-78
2022/06/23 09:36:33;;;;;;;7.30;3.00;;;26.90;84.30;;;;;;5009715;28;20049;-78
2022/06/23 09:39:36;;;;;;;6.38;3.05;;;27.10;84.30;;;;;;5009611;28;20092;-77
2022/06/23 09:42:36;;;;;;;4.70;3.40;;;27.20;83.50;;;;;;5004015;28;20049;-78
2022/06/23 09:45:29;;;;;;;5.57;3.45;;;27.30;80.90;;;;;;5045674;28;20042;-78
2022/06/23 09:48:01;;;;;;;7.88;3.22;;;27.50;80.30;;;;;;5030538;28;20046;-78
2022/06/23 09:50:44;;;;;;;7.55;3.42;;;27.60;81.50;;;;;;5019478;28;20045;-77
2022/06/23 09:53:32;;;;;;;4.18;3.00;;;27.60;76.50;;;;;;5009561;28;20403;-78
2022/06/23 09:56:46;;;;;;;7.47;3.05;;;27.70;77.00;;;;;;5019153;28;20038;-78
2022/06/23 09:59:20;;;;;;;6.90;3.03;;;27.80;77.00;;;;;;5000076;28;20054;-78
2022/06/23 10:02:14;;;;;;;7.57;2.70;;;27.80;76.70;;;;;;5013891;28;20149;-78
2022/06/23 10:05:12;;;;;;;6.35;2.85;;;28.00;76.90;;;;;;5024864;28;20116;-78
2022/06/23 10:07:56;;;;;;;7.20;2.85;;;28.10;77.30;;;;;;5013776;28;20117;-79
2022/06/23 10:10:44;;;;;;;3.63;2.92;;;28.30;77.30;;;;;;5048273;28;20128;-77
2022/06/23 10:13:25;;;;;;;6.28;2.63;;;28.40;74.80;;;;;;5041641;28;20034;-78
2022/06/23 10:16:03;;;;;;;5.15;2.72;;;28.60;75.00;;;;;;5034256;28;20172;-77
2022/06/23 10:18:53;;;;;;;8.77;3.00;;;28.70;72.00;;;;;;5043120;28;20037;-78
2022/06/23 10:21:46;;;;;;;5.75;2.90;;;28.80;73.70;;;;;;5028143;28;20048;-78
2022/06/23 10:24:42;;;;;;;9.25;2.70;;;29.00;73.70;;;;;;5033212;28;20050;-77
2022/06/23 10:27:31;;;;;;;7.03;2.60;;;29.10;73.30;;;;;;5020737;28;20418;-78
2022/06/23 10:30:28;;;;;;;7.13;2.83;;;29.30;72.60;;;;;;5022316;28;20073;-78
2022/06/23 10:33:01;;;;;;;6.43;2.63;;;29.40;70.00;;;;;;5050267;28;20120;-78
2022/06/23 10:35:55;;;;;;;3.67;2.50;;;29.40;71.30;;;;;;5049468;28;20053;-78
2022/06/23 10:38:39;;;;;;;3.28;2.92;;;29.50;72.50;;;;;;5043875;28;20057;-77
2022/06/23 10:41:23;;;;;;;4.10;2.60;;;29.60;71.20;;;;;;5030631;28;20040;-78
2022/06/23 10:44:18;;;;;;;6.00;2.88;;;29.70;69.50;;;;;;5051081;28;20032;-79
2022/06/23 10:47:15;;;;;;;3.28;2.50;;;29.80;69.70;;;;;;5018264;28;20046;-78
2022/06/23 10:50:06;;;;;;;4.93;2.72;;;29.90;68.90;;;;;;5016726;28;20557;-77
2022/06/23 10:52:50;;;;;;;5.10;2.60;;;29.90;67.30;;;;;;5021767;28;20526;-78
2022/06/23 10:55:24;;;;;;;5.70;3.03;;;30.10;69.40;;;;;;5031897;28;20069;-78
2022/06/23 10:58:08;;;;;;;5.40;2.50;;;30.10;68.20;;;;;;5026449;28;20077;-78
2022/06/23 11:00:34;;;;;;;3.30;2.50;;;30.30;68.70;;;;;;5021581;28;20040;-78
2022/06/23 11:03:17;;;;;;;3.72;2.70;;;30.30;68.60;;;;;;5023850;28;20034;-79
2022/06/23 11:06:13;;;;;;;4.38;3.00;;;30.50;67.80;;;;;;5045925;28;20112;-82
2022/06/23 11:09:07;;;;;;;3.25;2.40;;;30.50;64.50;;;;;;4999688;28;20050;-80
2022/06/23 11:11:52;;;;;;;3.78;2.60;;;30.40;64.40;;;;;;5028669;28;20124;-78
2022/06/23 11:14:44;;;;;;;4.68;2.22;;;30.50;66.20;;;;;;5035384;28;20483;-78
2022/06/23 11:17:16;;;;;;;;;;;30.70;67.20;;;;;;5018233;28;20384;-77
2022/06/23 11:20:00;;;;;;;;;;;30.70;63.20;;;;;;5040359;28;19921;-79
2022/06/23 11:23:01;;;;;;;2.85;2.45;;;30.80;62.80;;;;;;5047148;28;19944;-78
2022/06/23 11:25:55;;;;;;;3.72;2.40;;;30.70;61.70;;;;;;5019169;28;20048;-78
2022/06/23 11:28:35;;;;;;;4.70;2.35;;;30.80;61.90;;;;;;5011058;28;20050;-78
2022/06/23 11:31:30;;;;;;;3.13;2.47;;;31.00;62.50;;;;;;5038556;28;20449;-78
2022/06/23 11:33:59;;;;;;;4.93;2.45;;;31.10;61.90;;;;;;5038028;28;20052;-78
2022/06/23 11:37:01;;;;;;;3.30;2.45;;;31.30;63.30;;;;;;5003516;28;20045;-78
2022/06/23 11:39:32;;;;;;;3.25;2.13;;;31.40;64.20;;;;;;5000206;28;20418;-79
2022/06/23 11:42:36;;;;;;;4.25;2.05;;;31.60;63.00;;;;;;5004397;28;20049;-78
2022/06/23 11:45:20;;;;;;;13.00;2.65;;;31.70;61.90;;;;;;4988817;28;20056;-79
2022/06/23 11:48:21;;;;;;;2.83;2.30;;;31.80;62.80;;;;;;5012812;28;20052;-80
2022/06/23 11:51:26;;;;;;;3.15;2.20;;;32.00;58.20;;;;;;5009324;28;20572;-78
2022/06/23 11:53:57;;;;;;;3.47;2.50;;;32.10;59.10;;;;;;4992312;28;20045;-77
2022/06/23 11:56:42;;;;;;;2.85;2.17;;;32.00;58.00;;;;;;4992331;28;20034;-78
2022/06/23 11:59:14;;;;;;;4.07;2.40;;;32.10;60.90;;;;;;4999285;28;20122;-78
2022/06/23 12:01:39;;;;;;;2.70;2.08;;;32.20;61.40;;;;;;5024690;28;20171;-78
2022/06/23 12:04:21;;;;;;;5.32;2.47;;;32.10;60.40;;;;;;4995084;28;20073;-79
2022/06/23 12:07:02;;;;;;;7.53;2.28;;;32.10;59.40;;;;;;4994921;28;20093;-78
2022/06/23 12:09:52;;;;;;;3.50;2.25;;;32.30;59.50;;;;;;5000710;28;20065;-79
2022/06/23 12:12:19;;;;;;;6.97;2.55;;;32.40;58.70;;;;;;4994743;28;20049;-80
2022/06/23 12:14:45;;;;;;;3.55;2.33;;;32.40;58.80;;;;;;4994911;28;20096;-78
2022/06/23 12:17:39;;;;;;;4.72;2.35;;;32.50;57.30;;;;;;4978878;28;20053;-80
2022/06/23 12:20:11;;;;;;;2.45;2.22;;;32.40;55.60;;;;;;5010819;28;20066;-79
2022/06/23 12:22:39;;;;;;;;;;;32.40;57.60;;;;;;5022441;28;20067;-80
2022/06/23 12:25:27;;;;;;;3.03;2.10;;;32.40;57.60;;;;;;4999842;28;20346;-81
2022/06/23 12:28:11;;;;;;;6.15;2.28;;;32.40;56.90;;;;;;5005595;28;20057;-80
2022/06/23 12:31:11;;;;;;;12.55;2.63;;;32.40;57.00;;;;;;4992516;28;20511;-79
2022/06/23 12:33:52;;;;;;;2.85;2.30;;;32.40;56.50;;;;;;4993105;28;20056;-78
2022/06/23 12:36:34;;;;;;;3.45;2.13;;;32.60;57.60;;;;;;5023571;28;20431;-79
2022/06/23 12:39:10;;;;;;;2.50;2.05;;;32.60;57.70;;;;;;5010471;28;20045;-79
2022/06/23 12:41:44;;;;;;;4.35;2.33;;;32.50;55.60;;;;;;5011918;28;20033;-79
2022/06/23 12:44:35;;;;;;;7.38;2.65;;;32.60;56.30;;;;;;5039235;28;20116;-78
2022/06/23 12:47:07;;;;;;;3.37;2.70;;;32.60;55.70;;;;;;5017088;28;20046;-79
2022/06/23 12:49:55;;;;;;;4.32;2.60;;;32.50;55.30;;;;;;5025387;28;20654;-79
2022/06/23 12:52:56;;;;;;;5.13;2.30;;;32.60;55.50;;;;;;5027307;28;20077;-81
2022/06/23 12:55:33;;;;;;;3.45;2.20;;;32.60;54.50;;;;;;5028625;28;20041;-81
2022/06/23 12:58:02;;;;;;;4.75;2.20;;;32.60;53.70;;;;;;5036085;28;20072;-78
2022/06/23 13:00:52;;;;;;;4.70;2.50;;;32.60;54.70;;;;;;5066039;28;20491;-78
2022/06/23 13:03:45;;;;;;;4.38;2.22;;;32.40;54.90;;;;;;5020683;28;20034;-77
2022/06/23 13:06:24;;;;;;;2.88;2.30;;;32.50;55.60;;;;;;5012680;28;20051;-79
2022/06/23 13:09:31;;;;;;;5.68;2.30;;;32.50;53.90;;;;;;5015674;28;20049;-81
2022/06/23 13:11:59;;;;;;;4.30;2.42;;;32.60;53.60;;;;;;5055136;28;20473;-79
2022/06/23 13:14:31;;;;;;;4.88;2.40;;;32.70;55.80;;;;;;5041206;28;20044;-79
2022/06/23 13:17:25;;;;;;;6.13;2.28;;;32.80;54.50;;;;;;5026214;28;20064;-80
2022/06/23 13:20:16;;;;;;;5.57;2.60;;;32.80;53.30;;;;;;5038875;28;20041;-79
2022/06/23 13:23:05;;;;;;;4.77;2.30;;;32.80;55.00;;;;;;5028046;28;20040;-79
2022/06/23 13:25:36;;;;;;;5.00;2.50;;;33.00;54.00;;;;;;5037384;28;20053;-78
2022/06/23 13:28:07;;;;;;;5.20;2.55;;;33.10;55.30;;;;;;5014184;28;20128;-79
2022/06/23 13:30:43;;;;;;;3.95;2.30;;;33.10;53.50;;;;;;5026461;28;20074;-78
2022/06/23 13:33:30;;;;;;;6.60;2.40;;;33.20;52.60;;;;;;5009313;28;20069;-79
2022/06/23 13:36:12;;;;;;;3.85;2.10;;;33.10;53.10;;;;;;5035413;28;20065;-78
2022/06/23 13:38:47;;;;;;;5.40;2.53;;;33.10;52.60;;;;;;5028234;28;20183;-78
2022/06/23 13:41:24;;;;;;;4.40;2.55;;;33.20;53.60;;;;;;5027053;28;20418;-80
2022/06/23 13:44:02;;;;;;;6.97;2.28;;;33.30;52.10;;;;;;5021292;28;20041;-82
2022/06/23 13:46:35;;;;;;;7.53;2.30;;;33.30;52.70;;;;;;5010378;28;20037;-79
2022/06/23 13:49:24;;;;;;;7.45;2.65;;;33.40;53.50;;;;;;5021354;28;20549;-81
2022/06/23 13:52:04;;;;;;;4.95;2.40;;;33.50;52.30;;;;;;5025140;28;20074;-79
2022/06/23 13:54:53;;;;;;;2.70;1.92;;;33.40;51.80;;;;;;5020850;28;20103;-78
2022/06/23 13:57:41;;;;;;;2.95;2.28;;;33.30;52.60;;;;;;5026256;28;20046;-80
2022/06/23 14:00:15;;;;;;;4.47;2.30;;;33.40;52.70;;;;;;5024760;28;20048;-79
2022/06/23 14:03:01;;;;;;;4.22;2.30;;;33.40;52.80;;;;;;5020191;28;20095;-79